Adventure of The Seas — C6SA3 — position and weather

sailwx.info

Track history (hours):
 
Tides and Currents Weather Stations Pressure Air Temp Water Temp Dewpoint Dewpoint Depression Visibility Wind Speed Wind Dir Waves Ship Positions

Adventure of The Seas

Operator: Royal Caribbean Cruises Ltd

Last reported at 2016-May-25 01:33 UTC. Time now 2016-May-25 20:36 UTC.
Position N 16°16' W 062°05'.

Type: Passenger vessel. MMSI: 311263000.

Date/timePositionNaut miles runAvg speedWind from/ knotsBaromVisibWave heightAir tempDewpointWater temp
2016-May-25 01:33N 16°16' W 062°05'1515.1
2016-May-25 00:33N 16°32' W 062°05'1514.7
2016-May-24 23:33N 16°46' W 062°03'1514.5
2016-May-24 22:33N 17°01' W 062°02'1110.6
2016-May-24 21:33N 17°09' W 061°55'4 4.2
2016-May-24 20:32N 17°07' W 061°51'0 0.0
2016-May-24 19:32N 17°07' W 061°51'0 0.0
2016-May-24 18:32N 17°07' W 061°51'0 0.0
2016-May-24 17:33N 17°07' W 061°51'0 0.0
2016-May-24 16:33N 17°07' W 061°51'0 0.0
2016-May-24 15:32N 17°07' W 061°51'0 0.0
2016-May-24 14:32N 17°07' W 061°51'0 0.0
2016-May-24 13:29N 17°07' W 061°51'0 0.0
2016-May-24 12:32N 17°07' W 061°51'1 0.8
2016-May-24 11:34N 17°07' W 061°52'8 7.6
2016-May-24 10:33N 17°11' W 061°59'7 7.3
2016-May-24 09:33N 17°14' W 062°06'7 7.3
2016-May-24 08:33N 17°17' W 062°13'7 7.2
2016-May-24 07:33N 17°20' W 062°20'8 7.8
2016-May-24 06:33N 17°23' W 062°27'42 1.5
2016-May-23 01:32N 17°40' W 063°07'5 5.0
2016-May-23 00:31N 17°45' W 063°07'5 4.7
2016-May-22 23:32N 17°50' W 063°07'5 4.7
2016-May-22 22:32N 17°54' W 063°07'6 5.9
2016-May-22 21:32N 18°00' W 063°06'3 0.3
2016-May-22 11:25N 18°01' W 063°03'1415.3
2016-May-22 10:29N 18°02' W 063°18'1917.4
2016-May-22 09:24N 18°04' W 063°37'6917.8
2016-May-22 05:30N 18°12' W 064°50'7117.5
2016-May-22 01:27N 18°34' W 066°01'8 8.0
2016-May-22 00:29N 18°28' W 066°06'0 0.0
2016-May-21 23:20N 18°28' W 066°06'0 0.0
2016-May-21 22:32N 18°28' W 066°06'0 0.0
2016-May-21 21:23N 18°28' W 066°06'0 0.0
2016-May-21 20:23N 18°28' W 066°06'0 0.0
2016-May-21 19:20N 18°28' W 066°06'0 0.0
2016-May-21 18:26N 18°28' W 066°06'0 0.0
2016-May-21 17:32N 18°28' W 066°06'0 0.0
2016-May-21 15:20N 18°28' W 066°06'0 0.0
2016-May-21 14:32N 18°28' W 066°06'0 0.0
2016-May-21 13:29N 18°28' W 066°06'0 0.0
2016-May-21 12:29N 18°28' W 066°06'0 0.0
2016-May-21 11:32N 18°28' W 066°06'0 0.0
2016-May-21 10:32N 18°28' W 066°06'0 0.3
2016-May-21 09:34N 18°28' W 066°06'5 5.3
2016-May-21 08:34N 18°33' W 066°07'  
2016-May-16 08:06N 17°37' W 063°07'710.7
2016-May-16 07:26N 17°43' W 063°10'9510.7
2016-May-15 22:29N 18°11' W 064°46'73 3.6
2016-May-15 02:17N 18°37' W 065°58'6 8.3
2016-May-15 01:33N 18°34' W 066°04'  
Track history (hours):
 
Tides and Currents Weather Stations Pressure Air Temp Water Temp Dewpoint Dewpoint Depression Visibility Wind Speed Wind Dir Waves Ship Positions

Adventure of The Seas

Operator: Royal Caribbean Cruises Ltd

Last reported at 2016-May-25 01:33 UTC. Time now 2016-May-25 20:36 UTC.
Position N 16°16' W 062°05'.

Type: Passenger vessel. MMSI: 311263000.

Date/timePositionNaut miles runAvg speedWind from/ knotsBaromVisibWave heightAir tempDewpointWater temp
2016-May-25 01:33N 16°16' W 062°05'1515.1
2016-May-25 00:33N 16°32' W 062°05'1514.7
2016-May-24 23:33N 16°46' W 062°03'1514.5
2016-May-24 22:33N 17°01' W 062°02'1110.6
2016-May-24 21:33N 17°09' W 061°55'4 4.2
2016-May-24 20:32N 17°07' W 061°51'0 0.0
2016-May-24 19:32N 17°07' W 061°51'0 0.0
2016-May-24 18:32N 17°07' W 061°51'0 0.0
2016-May-24 17:33N 17°07' W 061°51'0 0.0
2016-May-24 16:33N 17°07' W 061°51'0 0.0
2016-May-24 15:32N 17°07' W 061°51'0 0.0
2016-May-24 14:32N 17°07' W 061°51'0 0.0
2016-May-24 13:29N 17°07' W 061°51'0 0.0
2016-May-24 12:32N 17°07' W 061°51'1 0.8
2016-May-24 11:34N 17°07' W 061°52'8 7.6
2016-May-24 10:33N 17°11' W 061°59'7 7.3
2016-May-24 09:33N 17°14' W 062°06'7 7.3
2016-May-24 08:33N 17°17' W 062°13'7 7.2
2016-May-24 07:33N 17°20' W 062°20'8 7.8
2016-May-24 06:33N 17°23' W 062°27'42 1.5
2016-May-23 01:32N 17°40' W 063°07'5 5.0
2016-May-23 00:31N 17°45' W 063°07'5 4.7
2016-May-22 23:32N 17°50' W 063°07'5 4.7
2016-May-22 22:32N 17°54' W 063°07'6 5.9
2016-May-22 21:32N 18°00' W 063°06'3 0.3
2016-May-22 11:25N 18°01' W 063°03'1415.3
2016-May-22 10:29N 18°02' W 063°18'1917.4
2016-May-22 09:24N 18°04' W 063°37'6917.8
2016-May-22 05:30N 18°12' W 064°50'7117.5
2016-May-22 01:27N 18°34' W 066°01'8 8.0
2016-May-22 00:29N 18°28' W 066°06'0 0.0
2016-May-21 23:20N 18°28' W 066°06'0 0.0
2016-May-21 22:32N 18°28' W 066°06'0 0.0
2016-May-21 21:23N 18°28' W 066°06'0 0.0
2016-May-21 20:23N 18°28' W 066°06'0 0.0
2016-May-21 19:20N 18°28' W 066°06'0 0.0
2016-May-21 18:26N 18°28' W 066°06'0 0.0
2016-May-21 17:32N 18°28' W 066°06'0 0.0
2016-May-21 15:20N 18°28' W 066°06'0 0.0
2016-May-21 14:32N 18°28' W 066°06'0 0.0
2016-May-21 13:29N 18°28' W 066°06'0 0.0
2016-May-21 12:29N 18°28' W 066°06'0 0.0
2016-May-21 11:32N 18°28' W 066°06'0 0.0
2016-May-21 10:32N 18°28' W 066°06'0 0.3
2016-May-21 09:34N 18°28' W 066°06'5 5.3
2016-May-21 08:34N 18°33' W 066°07'  
2016-May-16 08:06N 17°37' W 063°07'710.7
2016-May-16 07:26N 17°43' W 063°10'9510.7
2016-May-15 22:29N 18°11' W 064°46'73 3.6
2016-May-15 02:17N 18°37' W 065°58'6 8.3
2016-May-15 01:33N 18°34' W 066°04'  

Dump ship's entire track history